sensor_id;sensor_type;location;lat;lon;timestamp;temperature;humidity
16879;DHT22;8556;52.218;9.884;2023-05-07T00:02:15;9.80;99.90
16879;DHT22;8556;52.218;9.884;2023-05-07T00:04:41;9.80;99.90
16879;DHT22;8556;52.218;9.884;2023-05-07T00:07:09;9.80;99.90
16879;DHT22;8556;52.218;9.884;2023-05-07T00:09:36;9.80;99.90
16879;DHT22;8556;52.218;9.884;2023-05-07T00:12:03;9.80;99.90
16879;DHT22;8556;52.218;9.884;2023-05-07T00:14:30;9.80;99.90
16879;DHT22;8556;52.218;9.884;2023-05-07T00:16:58;9.80;99.90
16879;DHT22;8556;52.218;9.884;2023-05-07T00:19:24;9.80;99.90
16879;DHT22;8556;52.218;9.884;2023-05-07T00:21:51;9.80;99.90
16879;DHT22;8556;52.218;9.884;2023-05-07T00:24:19;9.90;99.90
16879;DHT22;8556;52.218;9.884;2023-05-07T00:26:46;9.80;99.90
16879;DHT22;8556;52.218;9.884;2023-05-07T00:29:12;9.80;99.90
16879;DHT22;8556;52.218;9.884;2023-05-07T00:31:39;9.90;99.90
16879;DHT22;8556;52.218;9.884;2023-05-07T00:34:07;9.80;99.90
16879;DHT22;8556;52.218;9.884;2023-05-07T00:36:34;9.90;99.90
16879;DHT22;8556;52.218;9.884;2023-05-07T00:39:01;9.90;99.90
16879;DHT22;8556;52.218;9.884;2023-05-07T00:41:29;9.80;99.90
16879;DHT22;8556;52.218;9.884;2023-05-07T00:43:56;9.80;99.90
16879;DHT22;8556;52.218;9.884;2023-05-07T00:46:23;9.70;99.90
16879;DHT22;8556;52.218;9.884;2023-05-07T00:48:51;9.70;99.90
16879;DHT22;8556;52.218;9.884;2023-05-07T00:51:20;9.70;99.90
16879;DHT22;8556;52.218;9.884;2023-05-07T00:53:47;9.70;99.90
16879;DHT22;8556;52.218;9.884;2023-05-07T00:56:13;9.60;99.90
16879;DHT22;8556;52.218;9.884;2023-05-07T00:58:41;9.70;99.90
16879;DHT22;8556;52.218;9.884;2023-05-07T01:01:08;9.60;99.90
16879;DHT22;8556;52.218;9.884;2023-05-07T01:03:35;9.50;99.90
16879;DHT22;8556;52.218;9.884;2023-05-07T01:06:03;9.50;99.90
16879;DHT22;8556;52.218;9.884;2023-05-07T01:08:32;9.60;99.90
16879;DHT22;8556;52.218;9.884;2023-05-07T01:11:00;9.60;99.90
16879;DHT22;8556;52.218;9.884;2023-05-07T01:13:27;9.60;99.90
16879;DHT22;8556;52.218;9.884;2023-05-07T01:15:54;9.60;99.90
16879;DHT22;8556;52.218;9.884;2023-05-07T01:18:21;9.60;99.90
16879;DHT22;8556;52.218;9.884;2023-05-07T01:20:48;9.50;99.90
16879;DHT22;8556;52.218;9.884;2023-05-07T01:23:17;9.50;99.90
16879;DHT22;8556;52.218;9.884;2023-05-07T01:25:51;9.60;99.90
16879;DHT22;8556;52.218;9.884;2023-05-07T01:28:18;9.50;99.90
16879;DHT22;8556;52.218;9.884;2023-05-07T01:30:46;9.50;99.90
16879;DHT22;8556;52.218;9.884;2023-05-07T01:33:16;9.60;99.90
16879;DHT22;8556;52.218;9.884;2023-05-07T01:35:48;9.60;99.90
16879;DHT22;8556;52.218;9.884;2023-05-07T01:38:18;9.70;99.90
16879;DHT22;8556;52.218;9.884;2023-05-07T01:40:45;9.50;99.90
16879;DHT22;8556;52.218;9.884;2023-05-07T01:43:12;9.50;99.90
16879;DHT22;8556;52.218;9.884;2023-05-07T01:45:39;9.50;99.90
16879;DHT22;8556;52.218;9.884;2023-05-07T01:48:07;9.60;99.90
16879;DHT22;8556;52.218;9.884;2023-05-07T01:50:38;9.60;99.90
16879;DHT22;8556;52.218;9.884;2023-05-07T01:53:06;9.60;99.90
16879;DHT22;8556;52.218;9.884;2023-05-07T01:55:34;9.60;99.90
16879;DHT22;8556;52.218;9.884;2023-05-07T01:58:02;9.60;99.90
16879;DHT22;8556;52.218;9.884;2023-05-07T02:00:29;9.60;99.90
16879;DHT22;8556;52.218;9.884;2023-05-07T02:02:56;9.60;99.90
16879;DHT22;8556;52.218;9.884;2023-05-07T02:05:23;9.60;99.90
16879;DHT22;8556;52.218;9.884;2023-05-07T02:07:49;9.60;99.90
16879;DHT22;8556;52.218;9.884;2023-05-07T02:10:16;9.60;99.90
16879;DHT22;8556;52.218;9.884;2023-05-07T02:12:44;9.70;99.90
16879;DHT22;8556;52.218;9.884;2023-05-07T02:15:11;9.60;99.90
16879;DHT22;8556;52.218;9.884;2023-05-07T02:17:39;9.70;99.90
16879;DHT22;8556;52.218;9.884;2023-05-07T02:20:24;9.70;99.90
16879;DHT22;8556;52.218;9.884;2023-05-07T02:22:51;9.80;99.90
16879;DHT22;8556;52.218;9.884;2023-05-07T02:25:17;9.70;99.90
16879;DHT22;8556;52.218;9.884;2023-05-07T02:27:45;9.70;99.90
16879;DHT22;8556;52.218;9.884;2023-05-07T02:30:13;9.70;99.90
16879;DHT22;8556;52.218;9.884;2023-05-07T02:32:40;9.70;99.90
16879;DHT22;8556;52.218;9.884;2023-05-07T02:35:07;9.70;99.90
16879;DHT22;8556;52.218;9.884;2023-05-07T02:37:34;9.70;99.90
16879;DHT22;8556;52.218;9.884;2023-05-07T02:40:01;9.70;99.90
16879;DHT22;8556;52.218;9.884;2023-05-07T02:42:28;9.70;99.90
16879;DHT22;8556;52.218;9.884;2023-05-07T02:44:57;9.70;99.90
16879;DHT22;8556;52.218;9.884;2023-05-07T02:47:24;9.70;99.90
16879;DHT22;8556;52.218;9.884;2023-05-07T02:49:52;9.70;99.90
16879;DHT22;8556;52.218;9.884;2023-05-07T02:52:19;9.70;99.90
16879;DHT22;8556;52.218;9.884;2023-05-07T02:54:46;9.70;99.90
16879;DHT22;8556;52.218;9.884;2023-05-07T02:57:12;9.80;99.90
16879;DHT22;8556;52.218;9.884;2023-05-07T02:59:39;9.80;99.90
16879;DHT22;8556;52.218;9.884;2023-05-07T03:02:07;9.60;99.90
16879;DHT22;8556;52.218;9.884;2023-05-07T03:04:34;9.60;99.90
16879;DHT22;8556;52.218;9.884;2023-05-07T03:07:01;9.60;99.90
16879;DHT22;8556;52.218;9.884;2023-05-07T03:09:28;9.50;99.90
16879;DHT22;8556;52.218;9.884;2023-05-07T03:11:56;9.60;99.90
16879;DHT22;8556;52.218;9.884;2023-05-07T03:14:23;9.60;99.90
16879;DHT22;8556;52.218;9.884;2023-05-07T03:16:51;9.60;99.90
16879;DHT22;8556;52.218;9.884;2023-05-07T03:19:19;9.50;99.90
16879;DHT22;8556;52.218;9.884;2023-05-07T03:21:46;9.50;99.90
16879;DHT22;8556;52.218;9.884;2023-05-07T03:24:13;9.50;99.90
16879;DHT22;8556;52.218;9.884;2023-05-07T03:26:40;9.40;99.90
16879;DHT22;8556;52.218;9.884;2023-05-07T03:29:07;9.60;99.90
16879;DHT22;8556;52.218;9.884;2023-05-07T03:31:33;9.60;99.90
16879;DHT22;8556;52.218;9.884;2023-05-07T03:34:00;9.50;99.90
16879;DHT22;8556;52.218;9.884;2023-05-07T03:36:31;9.40;99.90
16879;DHT22;8556;52.218;9.884;2023-05-07T03:38:58;9.40;99.90
16879;DHT22;8556;52.218;9.884;2023-05-07T03:41:25;9.40;99.90
16879;DHT22;8556;52.218;9.884;2023-05-07T03:43:52;9.40;99.90
16879;DHT22;8556;52.218;9.884;2023-05-07T03:46:18;9.40;99.90
16879;DHT22;8556;52.218;9.884;2023-05-07T03:48:45;9.40;99.90
16879;DHT22;8556;52.218;9.884;2023-05-07T03:51:12;9.40;99.90
16879;DHT22;8556;52.218;9.884;2023-05-07T03:53:40;9.40;99.90
16879;DHT22;8556;52.218;9.884;2023-05-07T03:56:07;9.40;99.90
16879;DHT22;8556;52.218;9.884;2023-05-07T03:58:34;9.30;99.90
16879;DHT22;8556;52.218;9.884;2023-05-07T04:01:01;9.40;99.90
16879;DHT22;8556;52.218;9.884;2023-05-07T04:03:28;9.40;99.90
16879;DHT22;8556;52.218;9.884;2023-05-07T04:05:55;9.30;99.90
16879;DHT22;8556;52.218;9.884;2023-05-07T04:08:21;9.30;99.90
16879;DHT22;8556;52.218;9.884;2023-05-07T04:10:54;9.30;99.90
16879;DHT22;8556;52.218;9.884;2023-05-07T04:13:21;9.20;99.90
16879;DHT22;8556;52.218;9.884;2023-05-07T04:15:48;9.20;99.90
16879;DHT22;8556;52.218;9.884;2023-05-07T04:18:15;9.20;99.90
16879;DHT22;8556;52.218;9.884;2023-05-07T04:20:42;9.20;99.90
16879;DHT22;8556;52.218;9.884;2023-05-07T04:23:09;9.30;99.90
16879;DHT22;8556;52.218;9.884;2023-05-07T04:25:35;9.20;99.90
16879;DHT22;8556;52.218;9.884;2023-05-07T04:28:04;9.20;99.90
16879;DHT22;8556;52.218;9.884;2023-05-07T04:30:31;9.30;99.90
16879;DHT22;8556;52.218;9.884;2023-05-07T04:32:58;9.30;99.90
16879;DHT22;8556;52.218;9.884;2023-05-07T04:35:25;9.30;99.90
16879;DHT22;8556;52.218;9.884;2023-05-07T04:37:52;9.30;99.90
16879;DHT22;8556;52.218;9.884;2023-05-07T04:40:18;9.30;99.90
16879;DHT22;8556;52.218;9.884;2023-05-07T04:42:45;9.30;99.90
16879;DHT22;8556;52.218;9.884;2023-05-07T04:45:13;9.30;99.90
16879;DHT22;8556;52.218;9.884;2023-05-07T04:47:40;9.30;99.90
16879;DHT22;8556;52.218;9.884;2023-05-07T04:50:08;9.30;99.90
16879;DHT22;8556;52.218;9.884;2023-05-07T04:52:34;9.30;99.90
16879;DHT22;8556;52.218;9.884;2023-05-07T04:55:01;9.40;99.90
16879;DHT22;8556;52.218;9.884;2023-05-07T04:57:28;9.40;99.90
16879;DHT22;8556;52.218;9.884;2023-05-07T04:59:55;9.40;99.90
16879;DHT22;8556;52.218;9.884;2023-05-07T05:02:23;9.60;99.90
16879;DHT22;8556;52.218;9.884;2023-05-07T05:04:50;9.40;99.90
16879;DHT22;8556;52.218;9.884;2023-05-07T05:07:17;9.50;99.90
16879;DHT22;8556;52.218;9.884;2023-05-07T05:09:43;9.40;99.90
16879;DHT22;8556;52.218;9.884;2023-05-07T05:12:10;9.40;99.90
16879;DHT22;8556;52.218;9.884;2023-05-07T05:14:37;9.50;99.90
16879;DHT22;8556;52.218;9.884;2023-05-07T05:17:04;9.50;99.90
16879;DHT22;8556;52.218;9.884;2023-05-07T05:19:32;9.50;99.90
16879;DHT22;8556;52.218;9.884;2023-05-07T05:21:58;9.50;99.90
16879;DHT22;8556;52.218;9.884;2023-05-07T05:24:26;9.50;99.90
16879;DHT22;8556;52.218;9.884;2023-05-07T05:26:53;9.50;99.90
16879;DHT22;8556;52.218;9.884;2023-05-07T05:29:20;9.50;99.90
16879;DHT22;8556;52.218;9.884;2023-05-07T05:31:46;9.60;99.90
16879;DHT22;8556;52.218;9.884;2023-05-07T05:34:14;9.50;99.90
16879;DHT22;8556;52.218;9.884;2023-05-07T05:36:44;9.50;99.90
16879;DHT22;8556;52.218;9.884;2023-05-07T05:39:10;9.50;99.90
16879;DHT22;8556;52.218;9.884;2023-05-07T05:41:38;9.60;99.90
16879;DHT22;8556;52.218;9.884;2023-05-07T05:44:05;9.70;99.90
16879;DHT22;8556;52.218;9.884;2023-05-07T05:46:32;9.70;99.90
16879;DHT22;8556;52.218;9.884;2023-05-07T05:48:58;9.60;99.90
16879;DHT22;8556;52.218;9.884;2023-05-07T05:51:25;9.70;99.90
16879;DHT22;8556;52.218;9.884;2023-05-07T05:53:54;9.70;99.90
16879;DHT22;8556;52.218;9.884;2023-05-07T05:56:21;9.70;99.90
16879;DHT22;8556;52.218;9.884;2023-05-07T05:58:47;9.70;99.90
16879;DHT22;8556;52.218;9.884;2023-05-07T06:01:14;9.80;99.90
16879;DHT22;8556;52.218;9.884;2023-05-07T06:03:41;9.70;99.90
16879;DHT22;8556;52.218;9.884;2023-05-07T06:06:08;10.00;99.90
16879;DHT22;8556;52.218;9.884;2023-05-07T06:08:34;9.80;99.90
16879;DHT22;8556;52.218;9.884;2023-05-07T06:11:03;9.80;99.90
16879;DHT22;8556;52.218;9.884;2023-05-07T06:13:29;9.90;99.90
16879;DHT22;8556;52.218;9.884;2023-05-07T06:15:56;10.00;99.90
16879;DHT22;8556;52.218;9.884;2023-05-07T06:18:23;10.10;99.90
16879;DHT22;8556;52.218;9.884;2023-05-07T06:20:51;10.00;99.90
16879;DHT22;8556;52.218;9.884;2023-05-07T06:23:18;9.90;99.90
16879;DHT22;8556;52.218;9.884;2023-05-07T06:25:48;10.00;99.90
16879;DHT22;8556;52.218;9.884;2023-05-07T06:28:17;10.10;99.90
16879;DHT22;8556;52.218;9.884;2023-05-07T06:30:43;10.10;99.90
16879;DHT22;8556;52.218;9.884;2023-05-07T06:33:10;10.30;99.90
16879;DHT22;8556;52.218;9.884;2023-05-07T06:35:37;10.20;99.90
16879;DHT22;8556;52.218;9.884;2023-05-07T06:38:04;10.20;99.90
16879;DHT22;8556;52.218;9.884;2023-05-07T06:40:31;10.30;99.90
16879;DHT22;8556;52.218;9.884;2023-05-07T06:42:58;10.20;99.90
16879;DHT22;8556;52.218;9.884;2023-05-07T06:45:27;10.30;99.90
16879;DHT22;8556;52.218;9.884;2023-05-07T06:47:54;10.50;99.90
16879;DHT22;8556;52.218;9.884;2023-05-07T06:50:20;10.60;99.90
16879;DHT22;8556;52.218;9.884;2023-05-07T06:52:47;10.30;99.90
16879;DHT22;8556;52.218;9.884;2023-05-07T06:55:14;10.50;99.90
16879;DHT22;8556;52.218;9.884;2023-05-07T06:57:41;10.40;99.90
16879;DHT22;8556;52.218;9.884;2023-05-07T07:00:09;10.50;99.90
16879;DHT22;8556;52.218;9.884;2023-05-07T07:02:37;10.50;99.90
16879;DHT22;8556;52.218;9.884;2023-05-07T07:05:05;10.50;99.90
16879;DHT22;8556;52.218;9.884;2023-05-07T07:07:32;10.70;99.90
16879;DHT22;8556;52.218;9.884;2023-05-07T07:09:59;10.70;99.90
16879;DHT22;8556;52.218;9.884;2023-05-07T07:12:26;10.60;99.90
16879;DHT22;8556;52.218;9.884;2023-05-07T07:14:54;10.80;99.90
16879;DHT22;8556;52.218;9.884;2023-05-07T07:17:21;10.80;99.90
16879;DHT22;8556;52.218;9.884;2023-05-07T07:19:49;11.00;99.90
16879;DHT22;8556;52.218;9.884;2023-05-07T07:22:16;11.00;99.90
16879;DHT22;8556;52.218;9.884;2023-05-07T07:24:43;11.20;99.90
16879;DHT22;8556;52.218;9.884;2023-05-07T07:27:09;11.50;99.90
16879;DHT22;8556;52.218;9.884;2023-05-07T07:29:36;11.70;99.90
16879;DHT22;8556;52.218;9.884;2023-05-07T07:32:03;11.60;99.90
16879;DHT22;8556;52.218;9.884;2023-05-07T07:34:30;11.20;99.90
16879;DHT22;8556;52.218;9.884;2023-05-07T07:36:58;11.40;99.90
16879;DHT22;8556;52.218;9.884;2023-05-07T07:39:30;11.40;99.90
16879;DHT22;8556;52.218;9.884;2023-05-07T07:41:57;11.60;99.90
16879;DHT22;8556;52.218;9.884;2023-05-07T07:44:24;11.50;99.90
16879;DHT22;8556;52.218;9.884;2023-05-07T07:46:51;11.60;99.90
16879;DHT22;8556;52.218;9.884;2023-05-07T07:49:17;11.80;99.90
16879;DHT22;8556;52.218;9.884;2023-05-07T07:51:44;11.70;99.90
16879;DHT22;8556;52.218;9.884;2023-05-07T07:54:13;12.00;99.90
16879;DHT22;8556;52.218;9.884;2023-05-07T07:56:39;12.00;99.90
16879;DHT22;8556;52.218;9.884;2023-05-07T07:59:06;11.70;99.90
16879;DHT22;8556;52.218;9.884;2023-05-07T08:01:33;11.80;99.90
16879;DHT22;8556;52.218;9.884;2023-05-07T08:04:00;12.00;99.90
16879;DHT22;8556;52.218;9.884;2023-05-07T08:06:28;11.70;99.90
16879;DHT22;8556;52.218;9.884;2023-05-07T08:08:55;11.60;99.90
16879;DHT22;8556;52.218;9.884;2023-05-07T08:11:23;11.60;99.90
16879;DHT22;8556;52.218;9.884;2023-05-07T08:13:50;11.60;99.90
16879;DHT22;8556;52.218;9.884;2023-05-07T08:16:17;11.80;99.90
16879;DHT22;8556;52.218;9.884;2023-05-07T08:18:44;11.70;99.90
16879;DHT22;8556;52.218;9.884;2023-05-07T08:21:11;11.60;99.90
16879;DHT22;8556;52.218;9.884;2023-05-07T08:23:38;11.70;99.90
16879;DHT22;8556;52.218;9.884;2023-05-07T08:26:05;11.60;99.90
16879;DHT22;8556;52.218;9.884;2023-05-07T08:28:33;11.70;99.90
16879;DHT22;8556;52.218;9.884;2023-05-07T08:31:00;11.80;99.90
16879;DHT22;8556;52.218;9.884;2023-05-07T08:33:27;11.80;99.90
16879;DHT22;8556;52.218;9.884;2023-05-07T08:35:54;11.60;99.90
16879;DHT22;8556;52.218;9.884;2023-05-07T08:38:20;11.70;99.90
16879;DHT22;8556;52.218;9.884;2023-05-07T08:40:47;11.50;99.90
16879;DHT22;8556;52.218;9.884;2023-05-07T08:43:14;11.70;99.90
16879;DHT22;8556;52.218;9.884;2023-05-07T08:45:45;11.80;99.90
16879;DHT22;8556;52.218;9.884;2023-05-07T08:48:15;11.80;99.90
16879;DHT22;8556;52.218;9.884;2023-05-07T08:50:42;11.90;99.90
16879;DHT22;8556;52.218;9.884;2023-05-07T08:53:08;11.90;99.90
16879;DHT22;8556;52.218;9.884;2023-05-07T08:55:35;11.80;99.90
16879;DHT22;8556;52.218;9.884;2023-05-07T08:58:03;11.80;99.90
16879;DHT22;8556;52.218;9.884;2023-05-07T09:00:30;11.80;99.90
16879;DHT22;8556;52.218;9.884;2023-05-07T09:02:58;11.90;99.90
16879;DHT22;8556;52.218;9.884;2023-05-07T09:05:24;12.00;99.90
16879;DHT22;8556;52.218;9.884;2023-05-07T09:07:51;12.00;99.90
16879;DHT22;8556;52.218;9.884;2023-05-07T09:10:18;11.80;99.90
16879;DHT22;8556;52.218;9.884;2023-05-07T09:12:46;11.90;99.90
16879;DHT22;8556;52.218;9.884;2023-05-07T09:15:13;12.00;99.90
16879;DHT22;8556;52.218;9.884;2023-05-07T09:17:41;12.00;99.90
16879;DHT22;8556;52.218;9.884;2023-05-07T09:20:09;11.90;99.90
16879;DHT22;8556;52.218;9.884;2023-05-07T09:22:37;11.90;99.90
16879;DHT22;8556;52.218;9.884;2023-05-07T09:25:05;11.90;99.90
16879;DHT22;8556;52.218;9.884;2023-05-07T09:27:32;11.90;99.90
16879;DHT22;8556;52.218;9.884;2023-05-07T09:30:00;12.20;99.90
16879;DHT22;8556;52.218;9.884;2023-05-07T09:32:29;12.20;99.90
16879;DHT22;8556;52.218;9.884;2023-05-07T09:34:56;12.30;99.90
16879;DHT22;8556;52.218;9.884;2023-05-07T09:37:26;12.20;99.90
16879;DHT22;8556;52.218;9.884;2023-05-07T09:39:53;12.30;99.90
16879;DHT22;8556;52.218;9.884;2023-05-07T09:42:23;12.30;99.90
16879;DHT22;8556;52.218;9.884;2023-05-07T09:44:51;12.00;99.90
16879;DHT22;8556;52.218;9.884;2023-05-07T09:47:19;12.00;99.90
16879;DHT22;8556;52.218;9.884;2023-05-07T09:49:48;12.10;99.90
16879;DHT22;8556;52.218;9.884;2023-05-07T09:52:15;12.10;99.90
16879;DHT22;8556;52.218;9.884;2023-05-07T09:54:45;12.20;99.90
16879;DHT22;8556;52.218;9.884;2023-05-07T09:57:13;12.40;99.90
16879;DHT22;8556;52.218;9.884;2023-05-07T09:59:43;12.30;99.90
16879;DHT22;8556;52.218;9.884;2023-05-07T10:02:10;12.30;99.90
16879;DHT22;8556;52.218;9.884;2023-05-07T10:04:37;12.30;99.90
16879;DHT22;8556;52.218;9.884;2023-05-07T10:07:04;12.50;99.90
16879;DHT22;8556;52.218;9.884;2023-05-07T10:09:35;12.60;99.90
16879;DHT22;8556;52.218;9.884;2023-05-07T10:12:05;12.80;99.90
16879;DHT22;8556;52.218;9.884;2023-05-07T10:14:33;12.70;99.90
16879;DHT22;8556;52.218;9.884;2023-05-07T10:17:00;12.50;99.90
16879;DHT22;8556;52.218;9.884;2023-05-07T10:19:29;12.60;99.90
16879;DHT22;8556;52.218;9.884;2023-05-07T10:22:00;12.60;99.90
16879;DHT22;8556;52.218;9.884;2023-05-07T10:24:32;12.60;99.90
16879;DHT22;8556;52.218;9.884;2023-05-07T10:27:01;12.60;99.90
16879;DHT22;8556;52.218;9.884;2023-05-07T10:29:38;12.50;99.90
16879;DHT22;8556;52.218;9.884;2023-05-07T10:35:11;12.70;99.90
16879;DHT22;8556;52.218;9.884;2023-05-07T10:37:40;12.60;99.90
16879;DHT22;8556;52.218;9.884;2023-05-07T10:40:09;12.90;99.90
16879;DHT22;8556;52.218;9.884;2023-05-07T10:42:36;13.10;99.90
16879;DHT22;8556;52.218;9.884;2023-05-07T10:45:14;13.10;99.90
16879;DHT22;8556;52.218;9.884;2023-05-07T10:48:07;12.90;99.90
16879;DHT22;8556;52.218;9.884;2023-05-07T10:50:34;13.20;99.90
16879;DHT22;8556;52.218;9.884;2023-05-07T10:53:21;13.20;99.90
16879;DHT22;8556;52.218;9.884;2023-05-07T10:55:52;12.90;99.90
16879;DHT22;8556;52.218;9.884;2023-05-07T10:58:40;12.70;99.90
16879;DHT22;8556;52.218;9.884;2023-05-07T11:01:06;13.00;99.90
16879;DHT22;8556;52.218;9.884;2023-05-07T11:04:14;12.80;99.90
16879;DHT22;8556;52.218;9.884;2023-05-07T11:06:41;13.00;99.90
16879;DHT22;8556;52.218;9.884;2023-05-07T11:09:07;13.10;99.90
16879;DHT22;8556;52.218;9.884;2023-05-07T11:11:45;13.20;99.90
16879;DHT22;8556;52.218;9.884;2023-05-07T11:14:13;13.20;99.90
16879;DHT22;8556;52.218;9.884;2023-05-07T11:16:41;13.20;99.90
16879;DHT22;8556;52.218;9.884;2023-05-07T11:19:09;13.20;99.90
16879;DHT22;8556;52.218;9.884;2023-05-07T11:21:37;13.20;99.90
16879;DHT22;8556;52.218;9.884;2023-05-07T11:24:06;13.20;99.90
16879;DHT22;8556;52.218;9.884;2023-05-07T11:26:45;13.20;99.90
16879;DHT22;8556;52.218;9.884;2023-05-07T11:29:15;13.10;99.90
16879;DHT22;8556;52.218;9.884;2023-05-07T11:31:42;13.00;99.90
16879;DHT22;8556;52.218;9.884;2023-05-07T11:34:09;13.50;99.90
16879;DHT22;8556;52.218;9.884;2023-05-07T11:36:42;13.20;99.90
16879;DHT22;8556;52.218;9.884;2023-05-07T11:39:29;13.30;99.90
16879;DHT22;8556;52.218;9.884;2023-05-07T11:41:57;13.30;99.90
16879;DHT22;8556;52.218;9.884;2023-05-07T11:44:25;13.50;99.90
16879;DHT22;8556;52.218;9.884;2023-05-07T11:46:51;13.40;99.90
16879;DHT22;8556;52.218;9.884;2023-05-07T11:49:24;13.60;99.90
16879;DHT22;8556;52.218;9.884;2023-05-07T11:51:51;13.60;99.90
16879;DHT22;8556;52.218;9.884;2023-05-07T11:54:18;13.50;99.90
16879;DHT22;8556;52.218;9.884;2023-05-07T11:56:46;13.90;99.90
16879;DHT22;8556;52.218;9.884;2023-05-07T11:59:17;13.90;99.90
16879;DHT22;8556;52.218;9.884;2023-05-07T12:01:46;14.30;99.90
16879;DHT22;8556;52.218;9.884;2023-05-07T12:04:18;14.50;99.90
16879;DHT22;8556;52.218;9.884;2023-05-07T12:06:45;14.40;99.90
16879;DHT22;8556;52.218;9.884;2023-05-07T12:09:12;14.50;99.90
16879;DHT22;8556;52.218;9.884;2023-05-07T12:11:40;14.80;99.90
16879;DHT22;8556;52.218;9.884;2023-05-07T12:14:12;14.90;99.90
16879;DHT22;8556;52.218;9.884;2023-05-07T12:16:39;14.40;99.90
16879;DHT22;8556;52.218;9.884;2023-05-07T12:19:08;14.40;99.90
16879;DHT22;8556;52.218;9.884;2023-05-07T12:21:38;14.20;99.90
16879;DHT22;8556;52.218;9.884;2023-05-07T12:24:05;14.00;99.90
16879;DHT22;8556;52.218;9.884;2023-05-07T12:26:32;13.90;99.90
16879;DHT22;8556;52.218;9.884;2023-05-07T12:29:03;13.90;99.90
16879;DHT22;8556;52.218;9.884;2023-05-07T12:31:30;14.30;99.90
16879;DHT22;8556;52.218;9.884;2023-05-07T12:33:57;14.40;99.90
16879;DHT22;8556;52.218;9.884;2023-05-07T12:36:25;14.10;99.90
16879;DHT22;8556;52.218;9.884;2023-05-07T12:38:54;14.10;99.90
16879;DHT22;8556;52.218;9.884;2023-05-07T12:41:21;14.20;99.90
16879;DHT22;8556;52.218;9.884;2023-05-07T12:43:56;14.00;99.90
16879;DHT22;8556;52.218;9.884;2023-05-07T12:46:24;14.10;99.90
16879;DHT22;8556;52.218;9.884;2023-05-07T12:49:00;14.20;99.90
16879;DHT22;8556;52.218;9.884;2023-05-07T12:51:30;14.00;99.90
16879;DHT22;8556;52.218;9.884;2023-05-07T12:54:00;13.90;99.90
16879;DHT22;8556;52.218;9.884;2023-05-07T12:56:27;14.10;99.90
16879;DHT22;8556;52.218;9.884;2023-05-07T12:59:01;14.30;99.90
16879;DHT22;8556;52.218;9.884;2023-05-07T13:01:34;14.10;99.90
16879;DHT22;8556;52.218;9.884;2023-05-07T13:04:18;14.30;99.90
16879;DHT22;8556;52.218;9.884;2023-05-07T13:06:46;14.30;99.90
16879;DHT22;8556;52.218;9.884;2023-05-07T13:09:17;14.10;99.90
16879;DHT22;8556;52.218;9.884;2023-05-07T13:11:58;14.20;99.90
16879;DHT22;8556;52.218;9.884;2023-05-07T13:14:35;14.20;99.90
16879;DHT22;8556;52.218;9.884;2023-05-07T13:17:05;14.20;99.90
16879;DHT22;8556;52.218;9.884;2023-05-07T13:19:33;14.60;99.90
16879;DHT22;8556;52.218;9.884;2023-05-07T13:22:05;14.80;99.90
16879;DHT22;8556;52.218;9.884;2023-05-07T13:24:32;14.50;99.90
16879;DHT22;8556;52.218;9.884;2023-05-07T13:27:23;14.30;99.90
16879;DHT22;8556;52.218;9.884;2023-05-07T13:30:04;14.30;99.90
16879;DHT22;8556;52.218;9.884;2023-05-07T13:32:41;14.10;99.90
16879;DHT22;8556;52.218;9.884;2023-05-07T13:35:09;14.50;99.90
16879;DHT22;8556;52.218;9.884;2023-05-07T13:37:43;14.60;99.90
16879;DHT22;8556;52.218;9.884;2023-05-07T13:40:13;14.90;99.90
16879;DHT22;8556;52.218;9.884;2023-05-07T13:42:44;14.60;99.90
16879;DHT22;8556;52.218;9.884;2023-05-07T13:45:23;14.30;99.90
16879;DHT22;8556;52.218;9.884;2023-05-07T13:47:51;14.30;99.90
16879;DHT22;8556;52.218;9.884;2023-05-07T13:50:22;14.60;99.90
16879;DHT22;8556;52.218;9.884;2023-05-07T13:52:51;14.80;99.90
16879;DHT22;8556;52.218;9.884;2023-05-07T13:55:18;15.20;99.90
16879;DHT22;8556;52.218;9.884;2023-05-07T13:57:44;15.40;99.90
16879;DHT22;8556;52.218;9.884;2023-05-07T14:00:12;16.00;99.90
16879;DHT22;8556;52.218;9.884;2023-05-07T14:02:39;15.20;99.90
16879;DHT22;8556;52.218;9.884;2023-05-07T14:05:06;14.80;99.90
16879;DHT22;8556;52.218;9.884;2023-05-07T14:07:34;14.80;99.90
16879;DHT22;8556;52.218;9.884;2023-05-07T14:10:03;14.60;99.90
16879;DHT22;8556;52.218;9.884;2023-05-07T14:12:29;14.80;99.90
16879;DHT22;8556;52.218;9.884;2023-05-07T14:14:56;15.00;99.90
16879;DHT22;8556;52.218;9.884;2023-05-07T14:17:23;14.50;99.90
16879;DHT22;8556;52.218;9.884;2023-05-07T14:19:51;14.80;99.90
16879;DHT22;8556;52.218;9.884;2023-05-07T14:22:20;14.50;99.90
16879;DHT22;8556;52.218;9.884;2023-05-07T14:24:46;14.20;99.90
16879;DHT22;8556;52.218;9.884;2023-05-07T14:27:15;14.20;99.90
16879;DHT22;8556;52.218;9.884;2023-05-07T14:29:41;14.60;99.90
16879;DHT22;8556;52.218;9.884;2023-05-07T14:32:08;14.60;99.90
16879;DHT22;8556;52.218;9.884;2023-05-07T14:34:38;14.60;99.90
16879;DHT22;8556;52.218;9.884;2023-05-07T14:37:05;14.60;99.90
16879;DHT22;8556;52.218;9.884;2023-05-07T14:39:32;14.60;99.90
16879;DHT22;8556;52.218;9.884;2023-05-07T14:41:59;14.60;99.90
16879;DHT22;8556;52.218;9.884;2023-05-07T14:44:27;14.50;99.90
16879;DHT22;8556;52.218;9.884;2023-05-07T14:46:54;14.20;99.90
16879;DHT22;8556;52.218;9.884;2023-05-07T14:49:20;14.50;99.90
16879;DHT22;8556;52.218;9.884;2023-05-07T14:51:47;14.20;99.90
16879;DHT22;8556;52.218;9.884;2023-05-07T14:54:14;14.50;99.90
16879;DHT22;8556;52.218;9.884;2023-05-07T14:56:41;14.60;99.90
16879;DHT22;8556;52.218;9.884;2023-05-07T14:59:09;14.50;99.90
16879;DHT22;8556;52.218;9.884;2023-05-07T15:01:37;14.70;99.90
16879;DHT22;8556;52.218;9.884;2023-05-07T15:04:05;14.60;99.90
16879;DHT22;8556;52.218;9.884;2023-05-07T15:06:32;14.40;99.90
16879;DHT22;8556;52.218;9.884;2023-05-07T15:08:59;14.40;99.90
16879;DHT22;8556;52.218;9.884;2023-05-07T15:11:26;14.20;99.90
16879;DHT22;8556;52.218;9.884;2023-05-07T15:13:55;14.10;99.90
16879;DHT22;8556;52.218;9.884;2023-05-07T15:16:21;14.30;99.90
16879;DHT22;8556;52.218;9.884;2023-05-07T15:18:51;14.80;99.90
16879;DHT22;8556;52.218;9.884;2023-05-07T15:21:18;14.30;99.90
16879;DHT22;8556;52.218;9.884;2023-05-07T15:23:45;14.20;99.90
16879;DHT22;8556;52.218;9.884;2023-05-07T15:26:12;14.00;99.90
16879;DHT22;8556;52.218;9.884;2023-05-07T15:28:39;14.00;99.90
16879;DHT22;8556;52.218;9.884;2023-05-07T15:31:07;14.30;99.90
16879;DHT22;8556;52.218;9.884;2023-05-07T15:33:34;13.90;99.90
16879;DHT22;8556;52.218;9.884;2023-05-07T15:36:04;14.10;99.90
16879;DHT22;8556;52.218;9.884;2023-05-07T15:38:31;14.10;99.90
16879;DHT22;8556;52.218;9.884;2023-05-07T15:40:58;14.00;99.90
16879;DHT22;8556;52.218;9.884;2023-05-07T15:43:24;14.10;99.90
16879;DHT22;8556;52.218;9.884;2023-05-07T15:45:53;14.00;99.90
16879;DHT22;8556;52.218;9.884;2023-05-07T15:48:20;13.90;99.90
16879;DHT22;8556;52.218;9.884;2023-05-07T15:50:46;14.10;99.90
16879;DHT22;8556;52.218;9.884;2023-05-07T15:53:15;14.00;99.90
16879;DHT22;8556;52.218;9.884;2023-05-07T15:55:42;14.00;99.90
16879;DHT22;8556;52.218;9.884;2023-05-07T15:58:09;14.00;99.90
16879;DHT22;8556;52.218;9.884;2023-05-07T16:00:37;13.90;99.90
16879;DHT22;8556;52.218;9.884;2023-05-07T16:03:06;13.80;99.90